SAAC/COC METAR and TAF weather

Enter ICAO airport designator
Station Type Date Time Source
SAAC METAR 2020/09/19 17:33 UTC NOAA

SAAC 191733Z 20012G26KT 9999 FEW020 20/M00 Q1022


Station Type Date Time Source
SAAC Decoded METAR 2020/09/19 17:33 UTC NOAA

Concordia Aerodrome, Argentina (SAAC) 31-18S 058-01W 38M
Sep 19, 2020 - 01:33 PM EDT / 2020.09.19 1733 UTC
Wind: from the SSW (200 degrees) at 14 MPH (12 KT) gusting to 30 MPH (26 KT):0
Visibility: greater than 7 mile(s):0
Sky conditions: mostly clear
Temperature: 68 F (20 C)
Dew Point: 32 F (0 C)
Relative Humidity: 26%
Pressure (altimeter): 30.18 in. Hg (1022 hPa)
ob: SAAC 191733Z 20012G26KT 9999 FEW020 20/M00 Q1022
cycle: 17

Station Type Date Time Source
SAAC TAF UTC NOAA

Error!

Example: see airport list